Eskridge, Kansas
Current Conditions -  °F | °C
As of 6:20 PM on Sunday 23 Nov 2014 (Local Time) from KFOE Reporting Station
Moderate Rain Moderate Rain  
Wind Chill:   Ceiling: 3900
Heat Index:   Visibility: 6mi
Dew Point:   Wind: 25mph
Humidity: 86%   Direction: 340°NNW
Pressure: 29.49"   Gusts: 36mph
Location:  38.86°N, 96.11°W
Report Text: KFOE 240020Z 34022G31KT 6SM RA BR SCT019 SCT026 OVC039 06/04 A2949 RMK AO2 PK WND 34031/0013 P0006 T00610039
Loading
Personal Weather Stations






























Interactive Weather Map New forecast layout! Learn more

10-Day Weather Forecast

Advertisements
Track Severe Weather on mobile